createdAt,value
2018-05-16T00:00:39.256Z,13.70
2018-05-16T00:03:06.809Z,13.07
2018-05-16T00:05:34.410Z,15.93
2018-05-16T00:08:02.054Z,15.27
2018-05-16T00:10:29.569Z,15.53
2018-05-16T00:12:57.134Z,12.23
2018-05-16T00:15:24.720Z,12.83
2018-05-16T00:17:52.303Z,14.30
2018-05-16T00:20:19.881Z,12.50
2018-05-16T00:22:47.450Z,13.90
2018-05-16T00:25:15.032Z,14.10
2018-05-16T00:27:42.582Z,12.57
2018-05-16T00:30:10.133Z,13.67
2018-05-16T00:32:37.703Z,19.17
2018-05-16T00:35:05.359Z,13.23
2018-05-16T00:37:32.904Z,16.50
2018-05-16T00:40:00.520Z,13.40
2018-05-16T00:42:28.069Z,12.20
2018-05-16T00:44:55.652Z,13.63
2018-05-16T00:47:23.216Z,13.67
2018-05-16T00:49:50.835Z,14.43
2018-05-16T00:52:18.413Z,15.80
2018-05-16T00:54:46.004Z,16.30
2018-05-16T00:57:13.547Z,13.97
2018-05-16T00:59:41.118Z,20.73
2018-05-16T01:02:08.691Z,16.70
2018-05-16T01:04:36.266Z,16.67
2018-05-16T01:07:03.837Z,17.10
2018-05-16T01:09:31.386Z,17.10
2018-05-16T01:11:59.660Z,15.83
2018-05-16T01:14:27.229Z,19.30
2018-05-16T01:16:54.850Z,15.43
2018-05-16T01:19:22.480Z,17.63
2018-05-16T01:21:50.066Z,27.43
2018-05-16T01:24:17.621Z,17.03
2018-05-16T01:26:45.255Z,18.87
2018-05-16T01:29:12.802Z,15.63
2018-05-16T01:31:40.364Z,15.77
2018-05-16T01:34:07.959Z,18.17
2018-05-16T01:36:35.503Z,19.30
2018-05-16T01:39:03.136Z,21.73
2018-05-16T01:41:30.717Z,18.17
2018-05-16T01:43:58.282Z,17.60
2018-05-16T01:46:25.817Z,20.93
2018-05-16T01:49:05.301Z,16.27
2018-05-16T01:51:32.868Z,20.00
2018-05-16T01:54:00.431Z,17.50
2018-05-16T01:56:28.007Z,20.10
2018-05-16T01:58:55.567Z,22.87
2018-05-16T02:01:23.128Z,19.50
2018-05-16T02:03:50.687Z,20.80
2018-05-16T02:06:18.265Z,19.50
2018-05-16T02:08:45.842Z,18.07
2018-05-16T02:11:13.369Z,17.90
2018-05-16T02:13:41.005Z,16.90
2018-05-16T02:16:08.625Z,14.00
2018-05-16T02:18:36.194Z,14.37
2018-05-16T02:21:03.760Z,15.80
2018-05-16T02:23:31.292Z,15.97
2018-05-16T02:25:58.860Z,14.63
2018-05-16T02:28:26.499Z,17.70
2018-05-16T02:30:54.036Z,13.27
2018-05-16T02:33:21.613Z,13.40
2018-05-16T02:35:49.207Z,15.33
2018-05-16T02:38:16.892Z,17.27
2018-05-16T02:40:44.476Z,17.70
2018-05-16T02:43:12.064Z,16.70
2018-05-16T02:45:39.652Z,15.77
2018-05-16T02:48:07.211Z,16.70
2018-05-16T02:50:34.765Z,17.40
2018-05-16T02:53:02.331Z,16.67
2018-05-16T02:55:29.908Z,16.27
2018-05-16T02:57:57.508Z,19.50
2018-05-16T03:00:25.060Z,19.73
2018-05-16T03:02:52.631Z,16.20
2018-05-16T03:05:20.178Z,16.77
2018-05-16T03:07:47.744Z,17.00
2018-05-16T03:10:15.384Z,24.70
2018-05-16T03:12:42.954Z,18.23
2018-05-16T03:15:10.496Z,17.67
2018-05-16T03:17:38.113Z,21.70
2018-05-16T03:20:05.658Z,21.10
2018-05-16T03:22:33.212Z,17.70
2018-05-16T03:25:00.855Z,20.90
2018-05-16T03:27:28.423Z,22.00
2018-05-16T03:29:55.990Z,22.60
2018-05-16T03:32:23.530Z,19.67
2018-05-16T03:34:51.098Z,21.17
2018-05-16T03:37:18.642Z,21.27
2018-05-16T03:39:46.238Z,20.10
2018-05-16T03:42:13.798Z,26.07
2018-05-16T03:44:41.374Z,20.63
2018-05-16T03:47:08.923Z,20.90
2018-05-16T03:49:36.473Z,22.80
2018-05-16T03:52:04.086Z,26.60
2018-05-16T03:54:31.714Z,22.53
2018-05-16T03:56:59.267Z,24.50
2018-05-16T03:59:38.633Z,31.37
2018-05-16T04:02:18.103Z,26.10
2018-05-16T04:04:45.701Z,34.07
2018-05-16T04:07:13.255Z,33.67
2018-05-16T04:09:40.791Z,32.20
2018-05-16T04:12:08.401Z,29.00
2018-05-16T04:14:35.979Z,27.07
2018-05-16T04:17:03.590Z,36.77
2018-05-16T04:19:31.138Z,31.00
2018-05-16T04:21:58.720Z,28.63
2018-05-16T04:24:26.272Z,28.30
2018-05-16T04:26:53.879Z,31.47
2018-05-16T04:29:21.471Z,32.30
2018-05-16T04:31:49.088Z,30.07
2018-05-16T04:34:16.645Z,33.43
2018-05-16T04:36:44.253Z,31.23
2018-05-16T04:39:11.791Z,33.60
2018-05-16T04:41:39.390Z,33.53
2018-05-16T04:44:06.972Z,33.00
2018-05-16T04:46:34.539Z,35.90
2018-05-16T04:49:02.123Z,32.97
2018-05-16T04:51:29.686Z,33.30
2018-05-16T04:53:57.268Z,36.27
2018-05-16T04:56:24.796Z,41.43
2018-05-16T04:58:52.383Z,38.20
2018-05-16T05:01:19.967Z,35.27
2018-05-16T05:03:47.481Z,31.07
2018-05-16T05:06:15.018Z,37.70
2018-05-16T05:08:42.652Z,35.70
2018-05-16T05:11:10.262Z,36.90
2018-05-16T05:13:37.851Z,39.90
2018-05-16T05:16:05.368Z,33.73
2018-05-16T05:18:33.032Z,35.50
2018-05-16T05:21:00.499Z,31.83
2018-05-16T05:23:28.093Z,30.97
2018-05-16T05:25:55.686Z,33.13
2018-05-16T05:28:23.253Z,29.53
2018-05-16T05:30:50.845Z,29.10
2018-05-16T05:33:18.411Z,26.27
2018-05-16T05:35:45.963Z,28.77
2018-05-16T05:38:13.506Z,27.60
2018-05-16T05:40:41.026Z,34.37
2018-05-16T05:43:08.583Z,28.63
2018-05-16T05:45:36.228Z,29.97
2018-05-16T05:48:03.824Z,30.33
2018-05-16T05:50:31.503Z,24.17
2018-05-16T05:52:59.114Z,26.07
2018-05-16T05:55:26.727Z,24.77
2018-05-16T05:57:54.310Z,26.23
2018-05-16T06:00:21.872Z,27.47
2018-05-16T06:02:49.420Z,27.43
2018-05-16T06:05:16.956Z,19.50
2018-05-16T06:07:44.588Z,21.50
2018-05-16T06:10:12.144Z,24.00
2018-05-16T06:12:39.843Z,19.30
2018-05-16T06:15:08.998Z,16.40
2018-05-16T06:17:36.650Z,17.97
2018-05-16T06:20:04.284Z,19.93
2018-05-16T06:22:31.852Z,14.30
2018-05-16T06:24:59.500Z,13.97
2018-05-16T06:27:27.413Z,16.07
2018-05-16T06:29:55.183Z,20.93
2018-05-16T06:32:22.715Z,14.23
2018-05-16T06:34:50.915Z,13.53
2018-05-16T06:37:18.627Z,16.03
2018-05-16T06:39:46.300Z,16.30
2018-05-16T06:42:13.869Z,11.60
2018-05-16T06:44:41.400Z,17.30
2018-05-16T06:47:09.011Z,9.90
2018-05-16T06:49:36.550Z,9.70
2018-05-16T06:52:04.104Z,10.63
2018-05-16T06:54:31.729Z,9.40
2018-05-16T06:56:59.285Z,9.03
2018-05-16T06:59:26.799Z,10.53
2018-05-16T07:01:54.431Z,9.07
2018-05-16T07:04:22.134Z,9.50
2018-05-16T07:06:49.695Z,9.63
2018-05-16T07:09:17.302Z,10.37
2018-05-16T07:11:44.876Z,9.40
2018-05-16T07:14:12.490Z,8.73
2018-05-16T07:16:40.077Z,8.57
2018-05-16T07:19:07.635Z,8.80
2018-05-16T07:21:35.245Z,8.33
2018-05-16T07:24:03.348Z,8.43
2018-05-16T07:26:30.924Z,18.57
2018-05-16T07:28:58.637Z,12.80
2018-05-16T07:31:26.216Z,11.23
2018-05-16T07:33:53.778Z,10.40
2018-05-16T07:36:21.381Z,12.17
2018-05-16T07:38:48.942Z,11.60
2018-05-16T07:41:16.629Z,10.60
2018-05-16T07:43:44.115Z,12.17
2018-05-16T07:46:11.658Z,11.23
2018-05-16T07:48:39.336Z,10.33
2018-05-16T07:51:06.935Z,10.60
2018-05-16T07:53:34.507Z,11.50
2018-05-16T07:56:02.214Z,13.43
2018-05-16T07:58:29.686Z,12.43
2018-05-16T08:00:57.289Z,13.23
2018-05-16T08:03:24.886Z,14.80
2018-05-16T08:05:52.483Z,15.50
2018-05-16T08:08:20.093Z,19.70
2018-05-16T08:10:47.657Z,10.13
2018-05-16T08:13:15.212Z,15.60
2018-05-16T08:15:42.793Z,10.40
2018-05-16T08:18:10.356Z,13.57
2018-05-16T08:20:37.929Z,12.70
2018-05-16T08:23:05.499Z,10.80
2018-05-16T08:25:33.105Z,9.10
2018-05-16T08:28:00.641Z,7.67
2018-05-16T08:30:28.441Z,6.37
2018-05-16T08:32:56.943Z,6.53
2018-05-16T08:35:24.575Z,7.10
2018-05-16T08:37:52.143Z,5.13
2018-05-16T08:40:19.697Z,6.23
2018-05-16T08:42:47.250Z,6.60
2018-05-16T08:45:14.867Z,5.50
2018-05-16T08:47:42.484Z,5.87
2018-05-16T08:50:10.011Z,6.30
2018-05-16T08:52:37.564Z,8.63
2018-05-16T08:55:05.106Z,6.67
2018-05-16T08:57:32.810Z,6.73
2018-05-16T09:00:00.537Z,8.03
2018-05-16T09:02:28.380Z,8.77
2018-05-16T09:04:55.935Z,8.87
2018-05-16T09:07:23.509Z,9.50
2018-05-16T09:09:51.136Z,8.20
2018-05-16T09:12:18.678Z,8.90
2018-05-16T09:14:46.279Z,8.30
2018-05-16T09:17:13.912Z,7.97
2018-05-16T09:19:41.457Z,31.43
2018-05-16T09:22:08.983Z,8.97
2018-05-16T09:24:36.575Z,8.77
2018-05-16T09:27:04.243Z,7.07
2018-05-16T09:29:32.264Z,6.47
2018-05-16T09:31:59.853Z,6.27
2018-05-16T09:34:27.445Z,6.93
2018-05-16T09:36:54.996Z,7.30
2018-05-16T09:39:22.598Z,7.90
2018-05-16T09:41:50.155Z,6.10
2018-05-16T09:44:17.717Z,7.67
2018-05-16T09:46:45.269Z,6.23
2018-05-16T09:49:12.802Z,8.20
2018-05-16T09:51:40.382Z,9.77
2018-05-16T09:54:08.021Z,8.83
2018-05-16T09:56:35.796Z,7.00
2018-05-16T09:59:03.346Z,9.87
2018-05-16T10:01:31.054Z,8.47
2018-05-16T10:03:58.670Z,9.47
2018-05-16T10:06:26.444Z,10.37
2018-05-16T10:08:54.073Z,10.43
2018-05-16T10:11:21.644Z,9.53
2018-05-16T10:13:49.238Z,9.90
2018-05-16T10:16:16.868Z,10.97
2018-05-16T10:18:44.574Z,11.27
2018-05-16T10:21:12.154Z,10.63
2018-05-16T10:23:39.765Z,9.50
2018-05-16T10:26:07.352Z,9.43
2018-05-16T10:28:34.879Z,8.50
2018-05-16T10:31:02.473Z,13.93
2018-05-16T10:33:30.073Z,10.80
2018-05-16T10:35:57.788Z,8.37
2018-05-16T10:38:25.460Z,9.97
2018-05-16T10:40:53.052Z,9.27
2018-05-16T10:43:20.590Z,9.90
2018-05-16T10:45:48.159Z,9.23
2018-05-16T10:48:15.747Z,14.40
2018-05-16T10:50:43.298Z,9.27
2018-05-16T10:53:10.899Z,9.90
2018-05-16T10:55:38.504Z,13.33
2018-05-16T10:58:06.111Z,18.23
2018-05-16T11:00:33.685Z,13.43
2018-05-16T11:03:01.251Z,10.40
2018-05-16T11:05:28.840Z,11.40
2018-05-16T11:07:56.426Z,16.00
2018-05-16T11:10:24.033Z,11.00
2018-05-16T11:12:51.604Z,10.00
2018-05-16T11:15:19.167Z,9.93
2018-05-16T11:17:46.723Z,9.70
2018-05-16T11:20:14.332Z,7.00
2018-05-16T11:22:41.900Z,7.60
2018-05-16T11:25:09.496Z,7.83
2018-05-16T11:27:37.127Z,8.97
2018-05-16T11:30:04.693Z,8.60
2018-05-16T11:32:32.267Z,7.77
2018-05-16T11:34:59.876Z,6.90
2018-05-16T11:37:27.414Z,7.77
2018-05-16T11:39:54.982Z,6.60
2018-05-16T11:42:22.570Z,11.33
2018-05-16T11:44:50.117Z,8.80
2018-05-16T11:47:17.687Z,20.07
2018-05-16T11:49:45.309Z,9.23
2018-05-16T11:52:12.845Z,33.53
2018-05-16T11:54:40.395Z,8.40
2018-05-16T11:57:07.959Z,8.50
2018-05-16T11:59:35.649Z,7.83
2018-05-16T12:02:03.678Z,9.27
2018-05-16T12:04:37.560Z,12.40
2018-05-16T12:07:06.457Z,10.13
2018-05-16T12:09:39.566Z,10.70
2018-05-16T12:12:07.310Z,12.83
2018-05-16T12:14:35.674Z,17.00
2018-05-16T12:17:03.377Z,17.30
2018-05-16T12:19:30.920Z,13.10
2018-05-16T12:21:58.554Z,13.50
2018-05-16T12:24:26.214Z,10.17
2018-05-16T12:26:53.767Z,10.47
2018-05-16T12:29:21.506Z,11.37
2018-05-16T12:31:50.653Z,11.00
2018-05-16T12:34:21.078Z,7.97
2018-05-16T12:36:48.796Z,6.33
2018-05-16T12:39:16.473Z,5.23
2018-05-16T12:41:44.164Z,4.63
2018-05-16T12:44:13.025Z,5.20
2018-05-16T12:46:40.767Z,6.20
2018-05-16T12:49:08.305Z,6.90
2018-05-16T12:51:35.908Z,6.40
2018-05-16T12:54:03.553Z,8.50
2018-05-16T12:56:31.294Z,6.90
2018-05-16T12:58:58.809Z,6.10
2018-05-16T13:01:26.393Z,8.33
2018-05-16T13:03:53.990Z,4.80
2018-05-16T13:06:21.746Z,4.70
2018-05-16T13:08:49.385Z,8.30
2018-05-16T13:11:17.012Z,5.53
2018-05-16T13:13:44.682Z,7.00
2018-05-16T13:16:12.224Z,7.37
2018-05-16T13:18:39.735Z,6.60
2018-05-16T13:21:07.301Z,10.13
2018-05-16T13:23:34.840Z,5.43
2018-05-16T13:26:02.393Z,4.03
2018-05-16T13:28:30.049Z,3.17
2018-05-16T13:30:57.591Z,3.23
2018-05-16T13:33:25.143Z,3.70
2018-05-16T13:35:52.700Z,4.00
2018-05-16T13:38:20.285Z,5.17
2018-05-16T13:40:47.846Z,4.00
2018-05-16T13:43:15.379Z,4.93
2018-05-16T13:45:43.014Z,6.37
2018-05-16T13:48:10.553Z,6.80
2018-05-16T13:50:38.196Z,7.40
2018-05-16T13:53:05.770Z,7.17
2018-05-16T13:55:33.375Z,11.03
2018-05-16T13:58:00.943Z,5.70
2018-05-16T14:09:28.682Z,5.50
2018-05-16T14:23:19.930Z,4.93
2018-05-16T14:25:47.410Z,5.53
2018-05-16T14:28:14.931Z,6.10
2018-05-16T14:30:42.411Z,7.10
2018-05-16T14:33:09.950Z,7.33
2018-05-16T14:35:37.408Z,7.13
2018-05-16T14:38:04.892Z,7.47
2018-05-16T14:40:32.375Z,7.30
2018-05-16T14:42:59.998Z,10.37
2018-05-16T14:45:27.365Z,9.40
2018-05-16T14:47:54.830Z,10.67
2018-05-16T14:50:22.299Z,15.10
2018-05-16T14:52:49.801Z,17.97
2018-05-16T14:55:17.278Z,21.17
2018-05-16T14:57:44.740Z,16.33
2018-05-16T15:00:12.230Z,13.00
2018-05-16T15:02:39.700Z,17.40
2018-05-16T15:05:07.166Z,10.30
2018-05-16T15:07:34.656Z,13.00
2018-05-16T15:10:02.117Z,9.23
2018-05-16T15:12:29.613Z,14.63
2018-05-16T15:17:47.522Z,15.77
2018-05-16T15:20:15.055Z,13.40
2018-05-16T15:22:44.167Z,9.80
2018-05-16T15:25:11.864Z,11.90
2018-05-16T15:27:39.320Z,11.03
2018-05-16T15:30:06.862Z,8.27
2018-05-16T15:32:34.323Z,9.17
2018-05-16T15:57:52.654Z,7.63
2018-05-16T16:00:20.123Z,7.03
2018-05-16T16:02:47.591Z,6.80
2018-05-16T16:05:15.165Z,8.87
2018-05-16T16:07:42.653Z,14.60
2018-05-16T16:10:10.120Z,10.23
2018-05-16T16:12:37.614Z,13.90
2018-05-16T16:15:05.118Z,21.63
2018-05-16T16:17:33.509Z,8.80
2018-05-16T16:20:01.473Z,9.43
2018-05-16T17:08:11.617Z,8.93
2018-05-16T17:10:39.079Z,10.60
2018-05-16T17:13:06.540Z,10.40
2018-05-16T17:15:34.009Z,9.53
2018-05-16T17:18:01.495Z,10.87
2018-05-16T17:26:10.142Z,9.57
2018-05-16T17:28:37.609Z,10.80
2018-05-16T17:48:04.325Z,9.77
2018-05-16T17:50:31.778Z,10.40
2018-05-16T18:04:22.407Z,14.00
2018-05-16T18:06:49.864Z,12.30
2018-05-16T18:15:12.800Z,11.07
2018-05-16T18:17:40.285Z,16.13
2018-05-16T18:20:07.751Z,14.73
2018-05-16T18:22:35.221Z,18.20
2018-05-16T18:25:02.693Z,16.50
2018-05-16T18:27:30.213Z,15.50
2018-05-16T18:30:14.384Z,15.03
2018-05-16T18:32:41.857Z,16.47
2018-05-16T18:35:09.345Z,16.00
2018-05-16T18:37:36.823Z,18.27
2018-05-16T18:48:37.076Z,17.57
2018-05-16T18:51:04.560Z,17.10
2018-05-16T18:53:32.032Z,15.27
2018-05-16T18:55:59.532Z,18.53
2018-05-16T18:58:27.019Z,16.43
2018-05-16T19:00:54.495Z,17.43
2018-05-16T19:03:21.980Z,18.90
2018-05-16T19:05:49.496Z,21.33
2018-05-16T19:08:16.988Z,20.67
2018-05-16T19:10:44.483Z,22.50
2018-05-16T19:13:11.968Z,25.40
2018-05-16T19:15:39.491Z,23.50
2018-05-16T19:18:07.016Z,22.53
2018-05-16T19:26:15.746Z,29.03
2018-05-16T19:28:43.249Z,19.33
2018-05-16T19:31:10.737Z,18.03
2018-05-16T19:33:38.224Z,21.90
2018-05-16T19:36:05.702Z,23.87
2018-05-16T19:38:33.227Z,20.93
2018-05-16T19:41:00.728Z,23.83
2018-05-16T19:43:28.193Z,25.33
2018-05-16T19:45:55.684Z,24.23
2018-05-16T19:48:23.215Z,20.10
2018-05-16T19:50:50.747Z,22.07
2018-05-16T19:53:18.241Z,23.17
2018-05-16T19:55:45.742Z,20.13
2018-05-16T19:58:13.231Z,24.30
2018-05-16T20:00:40.737Z,19.73
2018-05-16T20:03:08.228Z,21.37
2018-05-16T20:05:35.789Z,25.27
2018-05-16T20:08:03.294Z,26.83
2018-05-16T20:10:30.845Z,25.30
2018-05-16T20:12:58.356Z,24.17
2018-05-16T20:15:25.857Z,30.53
2018-05-16T20:17:53.355Z,25.93
2018-05-16T20:20:20.814Z,26.57
2018-05-16T20:22:48.303Z,27.20
2018-05-16T20:25:15.804Z,29.63
2018-05-16T20:27:43.280Z,31.13
2018-05-16T20:30:10.743Z,40.73
2018-05-16T20:32:38.219Z,32.93
2018-05-16T20:35:05.682Z,35.73
2018-05-16T20:37:33.161Z,43.47
2018-05-16T20:40:00.739Z,43.10
2018-05-16T20:42:28.182Z,44.80
2018-05-16T20:44:55.674Z,38.50
2018-05-16T20:47:23.146Z,38.40
2018-05-16T20:49:50.711Z,36.87
2018-05-16T20:52:18.185Z,31.13
2018-05-16T20:54:45.652Z,31.30
2018-05-16T20:57:13.147Z,25.80
2018-05-16T20:59:40.626Z,27.83
2018-05-16T21:02:08.112Z,26.20
2018-05-16T21:04:38.110Z,24.30
2018-05-16T22:04:17.019Z,26.07
2018-05-16T22:06:44.485Z,26.23
2018-05-16T22:09:11.968Z,30.30
2018-05-16T22:11:40.437Z,26.47
2018-05-16T22:14:26.491Z,24.40
2018-05-16T22:16:53.963Z,24.97
2018-05-16T22:19:21.433Z,24.40
2018-05-16T22:21:48.908Z,22.97
2018-05-16T22:24:17.151Z,26.47
2018-05-16T22:26:44.640Z,25.90
2018-05-16T22:32:08.762Z,30.00
2018-05-16T22:34:41.853Z,23.57
2018-05-16T22:37:14.934Z,21.03
2018-05-16T22:39:48.078Z,21.20
2018-05-16T22:42:21.206Z,24.17
2018-05-16T22:44:52.669Z,24.70
2018-05-16T22:47:20.160Z,20.70
2018-05-16T22:49:47.651Z,24.80
2018-05-16T22:52:15.209Z,22.43
2018-05-16T22:54:42.708Z,22.30
2018-05-16T22:57:10.201Z,27.13
2018-05-16T22:59:37.723Z,20.60
2018-05-16T23:02:05.219Z,24.03
2018-05-16T23:04:32.693Z,21.17
2018-05-16T23:07:11.197Z,22.07
2018-05-16T23:09:38.661Z,21.60
2018-05-16T23:20:39.084Z,25.83
2018-05-16T23:23:06.556Z,21.80
2018-05-16T23:25:34.067Z,18.43
2018-05-16T23:28:01.640Z,26.77
2018-05-16T23:30:29.192Z,21.13
2018-05-16T23:32:56.663Z,20.40
2018-05-16T23:35:24.131Z,27.17
2018-05-16T23:57:59.126Z,26.00
